createdAt,value
2019-03-18T00:00:15.165Z,5.30
2019-03-18T00:02:43.609Z,5.30
2019-03-18T00:05:12.105Z,5.30
2019-03-18T00:07:40.564Z,5.20
2019-03-18T00:10:09.221Z,5.30
2019-03-18T00:12:37.666Z,5.20
2019-03-18T00:15:08.341Z,5.20
2019-03-18T00:17:36.782Z,5.20
2019-03-18T00:20:08.286Z,5.20
2019-03-18T00:22:37.041Z,5.20
2019-03-18T00:25:07.953Z,5.20
2019-03-18T00:27:36.394Z,5.20
2019-03-18T00:30:16.375Z,5.30
2019-03-18T00:32:44.818Z,5.30
2019-03-18T00:35:13.309Z,5.40
2019-03-18T00:37:41.750Z,5.40
2019-03-18T00:40:17.120Z,5.40
2019-03-18T00:42:45.773Z,5.40
2019-03-18T00:45:15.589Z,5.40
2019-03-18T00:47:44.468Z,5.30
2019-03-18T00:50:14.324Z,5.30
2019-03-18T00:52:43.022Z,5.20
2019-03-18T00:55:11.702Z,5.20
2019-03-18T00:57:40.126Z,5.20
2019-03-18T01:00:29.425Z,5.20
2019-03-18T01:02:57.933Z,5.20
2019-03-18T01:05:26.357Z,5.20
2019-03-18T01:07:54.817Z,5.20
2019-03-18T01:10:23.280Z,5.00
2019-03-18T01:12:51.692Z,5.00
2019-03-18T01:15:28.066Z,5.00
2019-03-18T01:17:50.300Z,5.00
2019-03-18T01:20:18.748Z,5.00
2019-03-18T01:22:47.170Z,5.00
2019-03-18T01:25:15.621Z,5.00
2019-03-18T01:27:44.518Z,4.90
2019-03-18T01:30:14.310Z,5.00
2019-03-18T01:32:42.739Z,4.90
2019-03-18T01:35:11.253Z,5.00
2019-03-18T01:37:39.740Z,5.00
2019-03-18T01:40:10.144Z,5.00
2019-03-18T01:42:38.572Z,5.00
2019-03-18T01:45:07.754Z,4.90
2019-03-18T01:47:36.187Z,4.90
2019-03-18T01:50:11.953Z,4.90
2019-03-18T01:52:40.381Z,4.90
2019-03-18T01:55:09.088Z,4.90
2019-03-18T01:57:37.784Z,4.80
2019-03-18T02:00:09.297Z,4.80
2019-03-18T02:02:37.727Z,4.80
2019-03-18T02:05:07.608Z,4.70
2019-03-18T02:07:36.033Z,4.70
2019-03-18T02:10:07.509Z,4.60
2019-03-18T02:12:35.939Z,4.60
2019-03-18T02:15:06.112Z,4.60
2019-03-18T02:17:34.541Z,4.70
2019-03-18T02:20:03.146Z,4.60
2019-03-18T02:22:31.569Z,4.60
2019-03-18T02:25:00.005Z,4.60
2019-03-18T02:27:28.434Z,4.60
2019-03-18T02:29:56.878Z,4.60
2019-03-18T02:32:25.314Z,4.60
2019-03-18T02:34:53.754Z,4.70
2019-03-18T02:37:22.193Z,4.70
2019-03-18T02:39:50.640Z,4.70
2019-03-18T02:42:19.130Z,4.70
2019-03-18T02:44:47.669Z,4.70
2019-03-18T02:47:16.090Z,4.70
2019-03-18T02:49:44.532Z,4.70
2019-03-18T02:52:12.963Z,4.70
2019-03-18T02:54:41.419Z,4.70
2019-03-18T02:57:09.870Z,4.70
2019-03-18T02:59:38.294Z,4.70
2019-03-18T03:02:06.739Z,4.70
2019-03-18T03:04:35.174Z,4.70
2019-03-18T03:07:03.614Z,4.70
2019-03-18T03:09:32.121Z,4.70
2019-03-18T03:12:00.551Z,4.70
2019-03-18T03:14:28.996Z,4.70
2019-03-18T03:16:57.846Z,4.80
2019-03-18T03:19:26.575Z,4.70
2019-03-18T03:21:55.115Z,4.80
2019-03-18T03:24:23.536Z,4.80
2019-03-18T03:26:51.969Z,4.80
2019-03-18T03:29:20.397Z,4.80
2019-03-18T03:31:49.694Z,4.80
2019-03-18T03:34:18.122Z,4.70
2019-03-18T03:36:46.565Z,4.70
2019-03-18T03:39:14.994Z,4.70
2019-03-18T03:41:43.426Z,4.70
2019-03-18T03:44:12.176Z,4.60
2019-03-18T03:46:43.479Z,4.60
2019-03-18T03:49:10.779Z,4.60
2019-03-18T03:51:39.546Z,4.70
2019-03-18T03:54:08.045Z,4.70
2019-03-18T03:56:36.509Z,4.70
2019-03-18T03:59:05.037Z,4.70
2019-03-18T04:01:33.489Z,4.70
2019-03-18T04:04:01.972Z,4.70
2019-03-18T04:06:30.418Z,4.70
2019-03-18T04:08:58.839Z,4.70
2019-03-18T04:11:27.602Z,4.70
2019-03-18T04:13:56.021Z,4.70
2019-03-18T04:16:24.465Z,4.70
2019-03-18T04:18:52.894Z,4.60
2019-03-18T04:21:21.347Z,4.60
2019-03-18T04:23:49.770Z,4.60
2019-03-18T04:26:18.209Z,4.60
2019-03-18T04:28:46.970Z,4.60
2019-03-18T04:31:15.414Z,4.60
2019-03-18T04:33:43.838Z,4.50
2019-03-18T04:36:12.275Z,4.50
2019-03-18T04:38:40.707Z,4.50
2019-03-18T04:41:09.485Z,4.40
2019-03-18T04:43:38.182Z,4.50
2019-03-18T04:46:06.621Z,4.50
2019-03-18T04:48:35.046Z,4.50
2019-03-18T04:51:03.508Z,4.50
2019-03-18T04:53:31.989Z,4.50
2019-03-18T04:56:00.429Z,4.40
2019-03-18T04:58:31.784Z,4.40
2019-03-18T05:01:00.509Z,4.50
2019-03-18T05:03:28.934Z,4.50
2019-03-18T05:05:57.374Z,4.40
2019-03-18T05:08:25.801Z,4.40
2019-03-18T05:10:54.533Z,4.40
2019-03-18T05:13:22.957Z,4.40
2019-03-18T05:15:51.712Z,4.40
2019-03-18T05:18:20.129Z,4.50
2019-03-18T05:20:48.644Z,4.40
2019-03-18T05:23:17.123Z,4.50
2019-03-18T05:25:45.541Z,4.50
2019-03-18T05:28:13.986Z,4.50
2019-03-18T05:30:42.416Z,4.50
2019-03-18T05:33:10.841Z,4.40
2019-03-18T05:35:39.269Z,4.30
2019-03-18T05:38:07.782Z,4.30
2019-03-18T05:40:36.221Z,4.30
2019-03-18T05:43:04.652Z,4.30
2019-03-18T05:45:33.080Z,4.30
2019-03-18T05:48:01.866Z,4.30
2019-03-18T05:50:30.300Z,4.30
2019-03-18T05:52:58.737Z,4.30
2019-03-18T05:55:27.169Z,4.40
2019-03-18T05:57:55.605Z,4.30
2019-03-18T06:00:24.369Z,4.30
2019-03-18T06:02:52.884Z,4.40
2019-03-18T06:05:21.308Z,4.50
2019-03-18T06:07:49.752Z,4.50
2019-03-18T06:10:18.176Z,4.40
2019-03-18T06:12:47.085Z,4.50
2019-03-18T06:15:15.574Z,4.50
2019-03-18T06:17:52.474Z,4.60
2019-03-18T06:20:14.169Z,4.60
2019-03-18T06:22:42.605Z,4.60
2019-03-18T06:25:11.033Z,4.60
2019-03-18T06:27:39.472Z,4.60
2019-03-18T06:30:12.924Z,4.60
2019-03-18T06:32:41.368Z,4.70
2019-03-18T06:35:11.210Z,4.80
2019-03-18T06:37:40.009Z,4.80
2019-03-18T06:40:10.585Z,4.90
2019-03-18T06:42:39.015Z,4.90
2019-03-18T06:45:09.677Z,5.00
2019-03-18T06:47:38.190Z,5.00
2019-03-18T06:50:08.821Z,5.10
2019-03-18T06:52:37.306Z,5.10
2019-03-18T06:55:06.553Z,5.10
2019-03-18T06:57:34.972Z,5.20
2019-03-18T07:00:06.997Z,5.20
2019-03-18T07:02:35.117Z,5.20
2019-03-18T07:05:03.610Z,5.30
2019-03-18T07:07:32.424Z,5.30
2019-03-18T07:10:00.849Z,5.30
2019-03-18T07:12:29.356Z,5.40
2019-03-18T07:14:57.785Z,5.40
2019-03-18T07:17:26.231Z,5.40
2019-03-18T07:19:54.649Z,5.50
2019-03-18T07:22:23.098Z,5.50
2019-03-18T07:24:51.526Z,5.60
2019-03-18T07:27:19.965Z,5.60
2019-03-18T07:29:48.642Z,5.60
2019-03-18T07:32:17.091Z,5.60
2019-03-18T07:34:45.525Z,5.70
2019-03-18T07:37:13.978Z,5.70
2019-03-18T07:39:42.429Z,5.70
2019-03-18T07:42:10.867Z,5.70
2019-03-18T07:44:39.650Z,5.80
2019-03-18T07:47:08.097Z,5.80
2019-03-18T07:49:36.517Z,5.90
2019-03-18T07:52:04.950Z,5.90
2019-03-18T07:54:33.705Z,5.90
2019-03-18T07:57:02.132Z,5.90
2019-03-18T07:59:30.569Z,6.00
2019-03-18T08:01:59.333Z,6.00
2019-03-18T08:04:36.774Z,6.10
2019-03-18T08:06:57.930Z,6.10
2019-03-18T08:09:26.626Z,6.10
2019-03-18T08:11:55.077Z,6.10
2019-03-18T08:14:23.565Z,6.20
2019-03-18T08:16:51.994Z,6.20
2019-03-18T08:19:20.433Z,6.30
2019-03-18T08:21:48.858Z,6.30
2019-03-18T08:24:17.295Z,6.30
2019-03-18T08:26:45.728Z,6.30
2019-03-18T08:29:14.181Z,6.30
2019-03-18T08:31:42.606Z,6.40
2019-03-18T08:34:11.051Z,6.40
2019-03-18T08:36:39.882Z,6.40
2019-03-18T08:39:09.402Z,6.40
2019-03-18T08:41:38.355Z,6.40
2019-03-18T08:44:07.436Z,6.40
2019-03-18T08:46:35.913Z,6.50
2019-03-18T08:49:04.418Z,6.50
2019-03-18T08:51:32.851Z,6.50
2019-03-18T08:54:01.285Z,6.60
2019-03-18T08:56:29.831Z,6.50
2019-03-18T08:58:58.333Z,6.60
2019-03-18T09:01:26.758Z,6.50
2019-03-18T09:03:55.190Z,6.50
2019-03-18T09:06:23.617Z,6.60
2019-03-18T09:08:52.325Z,6.50
2019-03-18T09:11:20.754Z,6.70
2019-03-18T09:13:49.189Z,6.70
2019-03-18T09:16:18.161Z,6.70
2019-03-18T09:18:46.603Z,6.60
2019-03-18T09:21:15.028Z,6.60
2019-03-18T09:23:43.471Z,6.60
2019-03-18T09:26:11.895Z,6.70
2019-03-18T09:28:40.333Z,6.60
2019-03-18T09:31:08.777Z,6.60
2019-03-18T09:33:37.264Z,6.40
2019-03-18T09:36:05.696Z,6.30
2019-03-18T09:38:34.126Z,6.30
2019-03-18T09:41:02.572Z,6.50
2019-03-18T09:43:30.989Z,6.50
2019-03-18T09:45:59.452Z,6.50
2019-03-18T09:48:27.873Z,6.50
2019-03-18T09:50:56.313Z,6.50
2019-03-18T09:53:24.736Z,6.50
2019-03-18T09:55:53.174Z,6.40
2019-03-18T09:58:21.604Z,6.40
2019-03-18T10:00:50.037Z,6.40
2019-03-18T10:03:38.071Z,6.40
2019-03-18T10:06:06.515Z,6.30
2019-03-18T10:08:34.942Z,6.30
2019-03-18T10:11:03.450Z,6.30
2019-03-18T10:13:31.878Z,6.40
2019-03-18T10:16:00.581Z,6.40
2019-03-18T10:18:29.072Z,6.30
2019-03-18T10:20:57.535Z,6.30
2019-03-18T10:23:26.237Z,6.30
2019-03-18T10:25:54.787Z,6.20
2019-03-18T10:28:23.261Z,6.20
2019-03-18T10:30:51.696Z,6.10
2019-03-18T10:33:20.127Z,6.10
2019-03-18T10:35:48.641Z,6.00
2019-03-18T10:38:17.069Z,6.10
2019-03-18T10:40:45.513Z,6.10
2019-03-18T10:43:14.193Z,6.00
2019-03-18T10:45:42.625Z,5.90
2019-03-18T10:48:11.058Z,5.90
2019-03-18T10:50:58.857Z,5.80
2019-03-18T10:53:27.603Z,5.70
2019-03-18T10:56:07.364Z,5.80
2019-03-18T10:58:26.246Z,5.70
2019-03-18T11:00:54.942Z,5.70
2019-03-18T11:03:23.441Z,5.70
2019-03-18T11:05:51.954Z,5.70
2019-03-18T11:08:20.386Z,5.70
2019-03-18T11:10:48.827Z,5.70
2019-03-18T11:13:17.331Z,5.80
2019-03-18T11:15:45.766Z,5.80
2019-03-18T11:18:14.258Z,5.90
2019-03-18T11:20:42.765Z,5.90
2019-03-18T11:23:11.198Z,5.90
2019-03-18T11:25:39.638Z,6.00
2019-03-18T11:28:08.065Z,6.10
2019-03-18T11:30:36.486Z,6.10
2019-03-18T11:33:04.921Z,6.20
2019-03-18T11:35:33.344Z,6.10
2019-03-18T11:38:01.790Z,6.00
2019-03-18T11:40:30.205Z,6.10
2019-03-18T11:42:58.718Z,6.10
2019-03-18T11:45:27.161Z,6.00
2019-03-18T11:47:55.924Z,6.10
2019-03-18T11:50:24.359Z,6.10
2019-03-18T11:52:52.884Z,6.20
2019-03-18T11:55:22.783Z,6.30
2019-03-18T11:57:51.486Z,6.40
2019-03-18T12:00:21.813Z,6.40
2019-03-18T12:02:50.257Z,6.50
2019-03-18T12:05:22.983Z,6.60
2019-03-18T12:07:51.491Z,6.60
2019-03-18T12:10:20.857Z,6.60
2019-03-18T12:12:49.297Z,6.70
2019-03-18T12:15:21.368Z,6.70
2019-03-18T12:17:49.573Z,6.70
2019-03-18T12:20:24.125Z,6.80
2019-03-18T12:22:48.294Z,6.90
2019-03-18T12:25:16.716Z,7.00
2019-03-18T12:27:45.160Z,7.00
2019-03-18T12:30:19.671Z,7.10
2019-03-18T12:32:48.106Z,7.20
2019-03-18T12:35:16.533Z,7.30
2019-03-18T12:37:45.387Z,7.40
2019-03-18T12:40:15.045Z,7.50
2019-03-18T12:42:43.558Z,7.60
2019-03-18T12:45:13.818Z,7.70
2019-03-18T12:47:42.401Z,7.70
2019-03-18T12:50:36.867Z,7.70
2019-03-18T12:52:52.804Z,7.70
2019-03-18T12:55:21.229Z,7.60
2019-03-18T12:57:49.672Z,7.50
2019-03-18T13:00:29.900Z,7.30
2019-03-18T13:02:58.331Z,7.10
2019-03-18T13:05:26.822Z,7.00
2019-03-18T13:07:55.339Z,6.40
2019-03-18T13:10:23.762Z,5.60
2019-03-18T13:12:52.268Z,5.10
2019-03-18T13:15:21.142Z,4.70
2019-03-18T13:17:50.206Z,4.50
2019-03-18T13:20:20.942Z,4.30
2019-03-18T13:22:49.521Z,4.20
2019-03-18T13:25:17.949Z,4.10
2019-03-18T13:27:46.389Z,4.10
2019-03-18T13:30:19.538Z,3.90
2019-03-18T13:32:47.981Z,4.00
2019-03-18T13:35:16.478Z,4.10
2019-03-18T13:37:44.913Z,4.20
2019-03-18T13:40:19.669Z,4.30
2019-03-18T13:42:48.300Z,4.40
2019-03-18T13:45:20.441Z,4.30
2019-03-18T13:47:48.956Z,4.30
2019-03-18T13:50:19.193Z,4.30
2019-03-18T13:52:47.714Z,4.20
2019-03-18T13:55:16.129Z,4.30
2019-03-18T13:57:44.577Z,4.50
2019-03-18T14:00:17.348Z,4.70
2019-03-18T14:02:46.138Z,4.90
2019-03-18T14:05:14.573Z,5.00
2019-03-18T14:07:43.182Z,5.00
2019-03-18T14:10:39.731Z,5.10
2019-03-18T14:13:08.177Z,5.20
2019-03-18T14:15:36.609Z,5.40
2019-03-18T14:18:05.118Z,5.50
2019-03-18T14:20:33.549Z,5.60
2019-03-18T14:23:01.994Z,5.70
2019-03-18T14:25:30.413Z,5.70
2019-03-18T14:27:58.925Z,5.80
2019-03-18T14:30:27.353Z,5.90
2019-03-18T14:32:55.793Z,6.00
2019-03-18T14:35:24.244Z,6.10
2019-03-18T14:37:52.705Z,6.20
2019-03-18T14:40:24.777Z,6.30
2019-03-18T14:42:53.216Z,6.40
2019-03-18T14:45:22.600Z,6.50
2019-03-18T14:47:51.019Z,6.70
2019-03-18T14:50:19.910Z,6.70
2019-03-18T14:52:48.617Z,6.80
2019-03-18T14:55:17.897Z,6.70
2019-03-18T14:57:46.417Z,6.80
2019-03-18T15:00:20.451Z,6.80
2019-03-18T15:02:49.223Z,7.00
2019-03-18T15:05:17.658Z,6.90
2019-03-18T15:07:46.086Z,6.70
2019-03-18T15:10:19.842Z,6.70
2019-03-18T15:12:48.272Z,6.70
2019-03-18T15:15:18.176Z,6.60
2019-03-18T15:17:46.688Z,6.60
2019-03-18T15:20:16.585Z,6.60
2019-03-18T15:22:45.121Z,6.60
2019-03-18T15:25:18.570Z,6.60
2019-03-18T15:27:47.366Z,6.60
2019-03-18T15:30:18.217Z,6.60
2019-03-18T15:32:46.660Z,6.60
2019-03-18T15:35:16.445Z,6.60
2019-03-18T15:37:44.877Z,6.60
2019-03-18T15:40:37.089Z,6.60
2019-03-18T15:43:05.520Z,6.60
2019-03-18T15:45:33.947Z,6.60
2019-03-18T15:48:02.360Z,6.60
2019-03-18T15:50:30.798Z,6.60
2019-03-18T15:52:59.230Z,6.60
2019-03-18T15:55:27.671Z,6.60
2019-03-18T15:57:56.358Z,6.50
2019-03-18T16:00:26.533Z,6.50
2019-03-18T16:02:54.956Z,6.50
2019-03-18T16:05:23.566Z,6.40
2019-03-18T16:07:51.987Z,6.40
2019-03-18T16:10:20.917Z,6.50
2019-03-18T16:12:49.348Z,6.40
2019-03-18T16:15:20.440Z,6.30
2019-03-18T16:17:48.869Z,6.20
2019-03-18T16:20:22.491Z,6.00
2019-03-18T16:22:51.273Z,5.80
2019-03-18T16:25:20.053Z,5.70
2019-03-18T16:27:48.484Z,5.60
2019-03-18T16:30:22.985Z,5.50
2019-03-18T16:32:51.414Z,5.40
2019-03-18T16:35:19.850Z,5.40
2019-03-18T16:37:48.347Z,5.40
2019-03-18T16:40:19.220Z,5.30
2019-03-18T16:42:47.720Z,5.30
2019-03-18T16:45:41.058Z,5.30
2019-03-18T16:48:09.815Z,5.30
2019-03-18T16:50:38.253Z,5.40
2019-03-18T16:53:06.685Z,5.30
2019-03-18T16:55:35.141Z,5.30
2019-03-18T16:58:03.565Z,5.30
2019-03-18T17:00:32.079Z,5.30
2019-03-18T17:03:00.514Z,5.30
2019-03-18T17:05:29.421Z,5.30
2019-03-18T17:07:57.845Z,5.20
2019-03-18T17:10:26.361Z,5.10
2019-03-18T17:12:54.797Z,5.00
2019-03-18T17:15:23.306Z,5.00
2019-03-18T17:17:51.737Z,4.90
2019-03-18T17:20:20.185Z,4.90
2019-03-18T17:22:49.933Z,4.80
2019-03-18T17:25:24.153Z,4.70
2019-03-18T17:27:52.585Z,4.70
2019-03-18T17:30:21.361Z,4.60
2019-03-18T17:32:49.785Z,4.60
2019-03-18T17:35:18.301Z,4.50
2019-03-18T17:37:46.724Z,4.40
2019-03-18T17:40:19.429Z,4.30
2019-03-18T17:42:47.858Z,4.30
2019-03-18T17:45:19.523Z,4.20
2019-03-18T17:47:47.297Z,4.20
2019-03-18T17:50:51.868Z,4.10
2019-03-18T17:53:20.293Z,4.10
2019-03-18T17:55:48.736Z,4.00
2019-03-18T17:58:17.170Z,4.00
2019-03-18T18:00:49.927Z,4.00
2019-03-18T18:03:18.638Z,4.00
2019-03-18T18:05:47.074Z,3.90
2019-03-18T18:08:18.139Z,3.90
2019-03-18T18:10:45.681Z,3.70
2019-03-18T18:13:14.109Z,3.70
2019-03-18T18:15:44.549Z,3.70
2019-03-18T18:18:13.346Z,3.60
2019-03-18T18:20:44.108Z,3.60
2019-03-18T18:23:14.593Z,3.60
2019-03-18T18:25:42.673Z,3.60
2019-03-18T18:28:11.130Z,3.50
2019-03-18T18:30:39.625Z,3.50
2019-03-18T18:33:08.293Z,3.50
2019-03-18T18:35:36.873Z,3.40
2019-03-18T18:38:05.322Z,3.40
2019-03-18T18:40:33.741Z,3.40
2019-03-18T18:43:02.185Z,3.40
2019-03-18T18:45:30.677Z,3.40
2019-03-18T18:47:59.118Z,3.30
2019-03-18T18:50:27.598Z,3.30
2019-03-18T18:52:56.063Z,3.30
2019-03-18T18:55:24.545Z,3.30
2019-03-18T18:57:52.985Z,3.30
2019-03-18T19:00:22.348Z,3.20
2019-03-18T19:02:51.136Z,3.10
2019-03-18T19:05:19.629Z,3.10
2019-03-18T19:07:48.073Z,3.20
2019-03-18T19:10:20.510Z,3.20
2019-03-18T19:12:49.017Z,3.10
2019-03-18T19:15:22.242Z,3.20
2019-03-18T19:17:50.687Z,3.20
2019-03-18T19:20:19.274Z,3.30
2019-03-18T19:22:47.720Z,3.30
2019-03-18T19:25:18.986Z,3.30
2019-03-18T19:27:47.417Z,3.30
2019-03-18T19:30:18.458Z,3.30
2019-03-18T19:32:47.228Z,3.30
2019-03-18T19:35:15.657Z,3.30
2019-03-18T19:37:44.161Z,3.30
2019-03-18T19:40:18.561Z,3.30
2019-03-18T19:42:47.005Z,3.20
2019-03-18T19:45:15.510Z,3.10
2019-03-18T19:47:43.970Z,3.00
2019-03-18T19:50:20.500Z,3.00
2019-03-18T19:52:48.947Z,2.90
2019-03-18T19:55:17.378Z,2.90
2019-03-18T19:57:45.829Z,2.80
2019-03-18T20:00:35.128Z,2.80
2019-03-18T20:03:03.577Z,2.80
2019-03-18T20:05:32.332Z,2.80
2019-03-18T20:08:00.787Z,2.70
2019-03-18T20:10:29.201Z,2.70
2019-03-18T20:12:57.636Z,2.70
2019-03-18T20:15:26.128Z,2.60
2019-03-18T20:17:54.846Z,2.50
2019-03-18T20:20:24.008Z,2.40
2019-03-18T20:22:52.554Z,2.40
2019-03-18T20:25:21.008Z,2.30
2019-03-18T20:27:49.598Z,2.20
2019-03-18T20:30:22.023Z,2.10
2019-03-18T20:32:50.530Z,2.10
2019-03-18T20:35:42.801Z,2.10
2019-03-18T20:38:11.312Z,2.10
2019-03-18T20:40:39.730Z,2.10
2019-03-18T20:43:08.173Z,2.10
2019-03-18T20:45:36.891Z,2.10
2019-03-18T20:48:05.435Z,2.00
2019-03-18T20:50:33.859Z,1.90
2019-03-18T20:53:02.297Z,1.90
2019-03-18T20:55:30.788Z,2.00
2019-03-18T20:57:59.252Z,1.90
2019-03-18T21:00:27.728Z,1.90
2019-03-18T21:02:56.515Z,1.90
2019-03-18T21:05:25.612Z,1.90
2019-03-18T21:07:54.177Z,1.70
2019-03-18T21:10:22.612Z,1.70
2019-03-18T21:12:51.185Z,1.70
2019-03-18T21:15:19.634Z,1.70
2019-03-18T21:17:48.065Z,1.70
2019-03-18T21:20:26.725Z,1.70
2019-03-18T21:22:55.553Z,1.70
2019-03-18T21:25:23.977Z,1.70
2019-03-18T21:27:52.441Z,1.70
2019-03-18T21:30:23.781Z,1.70
2019-03-18T21:32:52.425Z,1.70
2019-03-18T21:35:20.879Z,1.80
2019-03-18T21:37:49.480Z,1.80
2019-03-18T21:40:18.758Z,1.80
2019-03-18T21:42:47.795Z,1.90
2019-03-18T21:45:23.464Z,1.90
2019-03-18T21:47:51.966Z,1.80
2019-03-18T21:50:20.422Z,1.80
2019-03-18T21:52:48.842Z,1.70
2019-03-18T21:55:17.554Z,1.70
2019-03-18T21:57:46.037Z,1.70
2019-03-18T22:00:18.474Z,1.80
2019-03-18T22:02:46.899Z,1.80
2019-03-18T22:05:15.579Z,1.90
2019-03-18T22:07:44.011Z,2.00
2019-03-18T22:10:19.815Z,2.10
2019-03-18T22:12:48.373Z,2.10
2019-03-18T22:15:17.177Z,2.10
2019-03-18T22:17:45.681Z,2.10
2019-03-18T22:20:16.122Z,2.10
2019-03-18T22:22:44.849Z,2.10
2019-03-18T22:25:14.234Z,2.10
2019-03-18T22:27:42.733Z,2.10
2019-03-18T22:30:21.750Z,2.10
2019-03-18T22:32:50.466Z,2.10
2019-03-18T22:35:20.743Z,2.10
2019-03-18T22:37:54.975Z,2.00
2019-03-18T22:40:23.552Z,2.00
2019-03-18T22:42:54.458Z,2.10
2019-03-18T22:45:22.965Z,2.10
2019-03-18T22:47:51.380Z,2.10
2019-03-18T22:50:20.226Z,2.10
2019-03-18T22:52:48.644Z,2.10
2019-03-18T22:55:17.150Z,2.20
2019-03-18T22:57:45.567Z,2.20
2019-03-18T23:00:26.855Z,2.30
2019-03-18T23:02:55.283Z,2.30
2019-03-18T23:05:23.800Z,2.40
2019-03-18T23:07:52.225Z,2.40
2019-03-18T23:10:20.657Z,2.40
2019-03-18T23:12:49.085Z,2.40
2019-03-18T23:15:17.520Z,2.40
2019-03-18T23:17:45.945Z,2.40
2019-03-18T23:20:14.588Z,2.30
2019-03-18T23:22:43.014Z,2.30
2019-03-18T23:25:11.524Z,2.30
2019-03-18T23:27:39.957Z,2.30
2019-03-18T23:30:14.051Z,2.30
2019-03-18T23:32:42.552Z,2.20
2019-03-18T23:35:11.641Z,2.20
2019-03-18T23:37:40.131Z,2.30
2019-03-18T23:40:10.295Z,2.30
2019-03-18T23:42:38.729Z,2.20
2019-03-18T23:45:08.817Z,2.20
2019-03-18T23:47:37.253Z,2.10
2019-03-18T23:50:11.983Z,2.10
2019-03-18T23:52:40.412Z,2.10
2019-03-18T23:55:18.168Z,2.10
2019-03-18T23:57:40.405Z,2.10
